Terminal Aerodrome Forecast
Issued by NWS

Home | Current Version | Previous Version | Text Only | Print | Product List | Glossary On
Versions: 1 2 3 4 5 6 7 8 9 10 11 12 13 14
000
FTUS43 KBIS 221734
TAFMOT
TAF
KMOT 221734Z 2218/2318 18007KT P6SM FEW250
     FM222300 15007KT P6SM FEW100 SCT250
     FM230200 12005KT P6SM FEW090 SCT200
     FM231300 10006KT P6SM SCT050 BKN250
     FM231700 12013G21KT P6SM SCT060 BKN200=

USA.gov is the U.S. government's official web portal to all federal, state and local government web resources and services.